Time;durP1;ratioP1;P1;durP2;ratioP2;P2;SDS_P1;SDS_P2;PMS_P1;PMS_P2;Temp;Humidity;BMP_temperature;BMP_pressure;BME280_temperature;BME280_humidity;BME280_pressure;Samples;Min_cycle;Max_cycle;Signal;HPM_P1;HPM_P2
2022/12/20 00:00:05;;;;;;;0.73;0.73;;;;;;;10.08;74.61;100957.16;5128705;28;20049;-81
2022/12/20 00:02:36;;;;;;;0.30;0.30;;;;;;;10.06;75.08;100952.84;5158490;28;20092;-79
2022/12/20 00:05:07;;;;;;;0.45;0.45;;;;;;;10.02;74.81;100953.78;5161876;28;20077;-80
2022/12/20 00:07:37;;;;;;;0.60;0.60;;;;;;;10.07;74.59;100950.16;5167722;28;20714;-80
2022/12/20 00:10:08;;;;;;;3.45;0.88;;;;;;;10.04;74.88;100949.38;5164394;28;20093;-80
2022/12/20 00:12:39;;;;;;;0.20;0.20;;;;;;;9.98;74.99;100950.34;5129592;28;20503;-80
2022/12/20 00:15:09;;;;;;;0.35;0.35;;;;;;;10.04;74.91;100941.50;5146432;28;20038;-80
2022/12/20 00:17:40;;;;;;;0.30;0.30;;;;;;;10.06;74.80;100952.84;5131818;28;20068;-80
2022/12/20 00:20:11;;;;;;;0.40;0.40;;;;;;;10.07;74.80;100965.06;5142867;28;20022;-79
2022/12/20 00:22:41;;;;;;;0.30;0.30;;;;;;;10.04;74.96;100965.09;5129697;28;20057;-79
2022/12/20 00:25:12;;;;;;;0.30;0.30;;;;;;;10.11;74.90;100971.09;5147324;28;20039;-79
2022/12/20 00:27:42;;;;;;;0.30;0.30;;;;;;;10.12;74.43;100978.91;5165939;28;20042;-79
2022/12/20 00:30:14;;;;;;;1.00;0.90;;;;;;;10.10;75.03;100971.97;5144914;28;20038;-80
2022/12/20 00:32:45;;;;;;;0.65;0.65;;;;;;;10.13;74.88;100972.78;5143979;28;20034;-80
2022/12/20 00:35:16;;;;;;;0.30;0.30;;;;;;;10.10;75.41;100975.44;5143722;28;20121;-80
2022/12/20 00:37:46;;;;;;;0.40;0.40;;;;;;;10.10;74.86;100969.34;5149170;28;20889;-80
2022/12/20 00:40:17;;;;;;;0.30;0.30;;;;;;;10.13;75.34;100974.53;5148236;28;20414;-79
2022/12/20 00:42:47;;;;;;;1.08;0.98;;;;;;;10.08;75.12;100967.63;5129781;28;20042;-80
2022/12/20 00:45:18;;;;;;;0.57;0.57;;;;;;;10.08;74.48;100972.03;5149175;28;20031;-81
2022/12/20 00:47:48;;;;;;;0.40;0.40;;;;;;;10.16;74.45;100979.72;5145652;28;20082;-81
2022/12/20 00:50:19;;;;;;;0.30;0.30;;;;;;;10.15;74.33;100984.09;5132665;28;20501;-81
2022/12/20 00:52:49;;;;;;;0.30;0.30;;;;;;;10.19;74.68;100971.78;5162002;28;20610;-80
2022/12/20 00:55:20;;;;;;;0.93;0.35;;;;;;;10.19;74.57;100964.78;5132525;28;20022;-79
2022/12/20 00:57:50;;;;;;;0.38;0.38;;;;;;;10.22;73.74;100948.97;5133238;28;20065;-79
2022/12/20 01:00:21;;;;;;;0.38;0.38;;;;;;;10.18;73.60;100946.47;5161013;28;20588;-79
2022/12/20 01:02:51;;;;;;;0.30;0.30;;;;;;;10.19;73.97;100945.56;5159696;28;20050;-80
2022/12/20 01:05:22;;;;;;;0.40;0.40;;;;;;;10.18;73.93;100949.94;5168044;28;20026;-80
2022/12/20 01:07:52;;;;;;;0.52;0.40;;;;;;;10.21;73.65;100941.13;5148211;28;20120;-79
2022/12/20 01:10:23;;;;;;;0.20;0.20;;;;;;;10.28;72.82;100953.25;5153177;28;20038;-80
2022/12/20 01:12:54;;;;;;;0.30;0.30;;;;;;;10.24;73.36;100947.19;5159171;28;20040;-80
2022/12/20 01:15:24;;;;;;;0.30;0.30;;;;;;;10.30;72.99;100943.56;5181898;28;20061;-80
2022/12/20 01:17:54;;;;;;;0.68;0.68;;;;;;;10.27;73.01;100941.00;5188048;28;20030;-80
2022/12/20 01:20:25;;;;;;;1.08;0.95;;;;;;;10.32;72.98;100933.91;5145153;28;20122;-80
2022/12/20 01:22:55;;;;;;;0.40;0.40;;;;;;;10.25;73.42;100934.94;5169138;28;20732;-80
2022/12/20 01:25:26;;;;;;;0.43;0.43;;;;;;;10.30;72.70;100925.19;5151092;28;20030;-79
2022/12/20 01:27:56;;;;;;;0.40;0.40;;;;;;;10.31;73.32;100929.53;5141553;28;20242;-79
2022/12/20 01:30:27;;;;;;;0.50;0.50;;;;;;;10.28;73.20;100940.13;5130222;28;20030;-79
2022/12/20 01:32:57;;;;;;;0.43;0.43;;;;;;;10.41;72.84;100946.00;5162462;28;20023;-80
2022/12/20 01:35:28;;;;;;;0.47;0.47;;;;;;;10.38;72.50;100936.41;5143698;28;20129;-79
2022/12/20 01:37:58;;;;;;;2.13;1.10;;;;;;;10.43;72.83;100940.69;5138542;28;20065;-79
2022/12/20 01:40:29;;;;;;;0.30;0.30;;;;;;;10.49;72.11;100933.56;5150274;28;20349;-80
2022/12/20 01:42:59;;;;;;;0.30;0.30;;;;;;;10.45;72.59;100934.50;5167234;28;20037;-81
2022/12/20 01:45:30;;;;;;;0.20;0.20;;;;;;;10.44;72.63;100939.81;5159626;28;20030;-81
2022/12/20 01:48:00;;;;;;;0.30;0.30;;;;;;;10.46;72.69;100935.34;5141015;28;20152;-81
2022/12/20 01:50:31;;;;;;;1.00;1.00;;;;;;;10.54;72.32;100941.28;5153401;28;20323;-81
2022/12/20 01:53:04;;;;;;;0.20;0.20;;;;;;;10.50;72.89;100947.53;5167450;28;20049;-81
2022/12/20 01:55:35;;;;;;;0.65;0.65;;;;;;;10.48;72.71;100941.44;5160704;28;20424;-80
2022/12/20 01:58:09;;;;;;;0.20;0.20;;;;;;;10.49;72.20;100932.69;5179844;28;20502;-80
2022/12/20 02:00:40;;;;;;;0.93;0.65;;;;;;;10.46;72.84;100927.50;5171866;28;20045;-81
2022/12/20 02:03:12;;;;;;;1.63;0.95;;;;;;;10.50;72.77;100926.53;5157706;28;20380;-80
2022/12/20 02:05:45;;;;;;;0.30;0.30;;;;;;;10.54;72.71;100918.56;5144436;28;20041;-80
2022/12/20 02:08:18;;;;;;;0.43;0.43;;;;;;;10.51;72.41;100909.91;5178388;28;20100;-81
2022/12/20 02:10:58;;;;;;;0.98;0.95;;;;;;;10.47;72.93;100895.13;5173655;28;20033;-81
2022/12/20 02:13:44;;;;;;;0.30;0.30;;;;;;;10.51;72.83;100916.00;5155987;28;20030;-82
2022/12/20 02:16:23;;;;;;;0.55;0.55;;;;;;;10.59;72.63;100909.69;5170613;28;20652;-81
2022/12/20 02:19:18;;;;;;;0.30;0.30;;;;;;;10.60;72.10;100904.44;5145306;28;20107;-81
2022/12/20 02:22:15;;;;;;;0.40;0.40;;;;;;;10.62;72.23;100893.91;5139576;28;20706;-80
2022/12/20 02:25:13;;;;;;;0.20;0.20;;;;;;;10.65;72.46;100897.31;5156636;28;20043;-81
2022/12/20 02:27:53;;;;;;;0.30;0.30;;;;;;;10.58;73.01;100898.34;5133659;28;20088;-81
2022/12/20 02:30:27;;;;;;;0.20;0.20;;;;;;;10.56;72.58;100894.91;5151311;28;20034;-80
2022/12/20 02:33:01;;;;;;;0.40;0.40;;;;;;;10.57;73.30;100898.41;5160118;28;20022;-81
2022/12/20 02:35:35;;;;;;;0.80;0.40;;;;;;;10.57;72.89;100891.38;5154224;28;20023;-81
2022/12/20 02:38:35;;;;;;;0.60;0.60;;;;;;;10.57;73.04;100896.63;5148379;28;20031;-82
2022/12/20 02:41:27;;;;;;;0.30;0.30;;;;;;;10.55;73.58;100903.66;5155456;28;20502;-81
2022/12/20 02:47:02;;;;;;;0.40;0.40;;;;;;;10.47;73.46;100910.84;5146146;28;20574;-81
2022/12/20 02:49:37;;;;;;;;;;;;;;;10.50;74.30;100911.66;5136698;28;20275;-82
2022/12/20 02:52:10;;;;;;;0.30;0.30;;;;;;;10.51;74.33;100920.41;5153132;28;19977;-81
2022/12/20 02:54:41;;;;;;;;;;;;;;;10.55;74.37;100920.28;5166899;28;20049;-81
2022/12/20 02:57:24;;;;;;;0.43;0.43;;;;;;;10.62;74.83;100918.34;5165566;28;19968;-79
2022/12/20 03:00:00;;;;;;;0.33;0.33;;;;;;;10.59;74.78;100917.56;5144858;28;20061;-81
2022/12/20 03:03:21;;;;;;;2.72;1.65;;;;;;;10.54;75.15;100904.56;5160996;28;20605;-82
2022/12/20 03:05:25;;;;;;;0.30;0.30;;;;;;;10.54;75.41;100900.19;5167978;28;20037;-80
2022/12/20 03:07:56;;;;;;;0.30;0.30;;;;;;;10.49;75.73;100902.06;5163640;28;20528;-81
2022/12/20 03:10:26;;;;;;;4.65;1.75;;;;;;;10.49;75.86;100909.06;5132679;28;20041;-80
2022/12/20 03:12:57;;;;;;;1.05;1.05;;;;;;;10.47;75.94;100905.63;5143131;28;20031;-81
2022/12/20 03:15:27;;;;;;;0.30;0.30;;;;;;;10.47;75.72;100905.63;5168715;28;20038;-81
2022/12/20 03:17:58;;;;;;;0.30;0.30;;;;;;;10.46;75.96;100907.38;5139934;28;20038;-81
2022/12/20 03:20:28;;;;;;;0.95;0.75;;;;;;;10.45;76.23;100908.28;5144266;28;20027;-81
2022/12/20 03:22:59;;;;;;;0.68;0.68;;;;;;;10.44;76.23;100906.56;5152709;28;20034;-80
2022/12/20 03:25:29;;;;;;;0.30;0.30;;;;;;;10.42;76.08;100913.59;5151450;28;20504;-80
2022/12/20 03:28:00;;;;;;;0.30;0.30;;;;;;;10.44;76.60;100917.03;5141170;28;20023;-81
2022/12/20 03:30:30;;;;;;;0.30;0.30;;;;;;;10.42;75.98;100907.50;5139515;28;20034;-80
2022/12/20 03:33:01;;;;;;;0.32;0.32;;;;;;;10.42;76.40;100921.47;5136502;28;20036;-81
2022/12/20 03:35:31;;;;;;;0.20;0.20;;;;;;;10.46;76.18;100924.88;5163091;28;20104;-81
2022/12/20 03:38:02;;;;;;;0.95;0.93;;;;;;;10.46;76.10;100915.25;5133320;28;20026;-80
2022/12/20 03:40:33;;;;;;;0.50;0.47;;;;;;;10.45;76.04;100923.16;5162132;28;20026;-81
2022/12/20 03:43:03;;;;;;;1.17;1.10;;;;;;;10.42;76.39;100915.34;5130323;28;20027;-80
2022/12/20 03:45:34;;;;;;;0.22;0.22;;;;;;;10.34;76.71;100921.63;5134286;28;20052;-80
2022/12/20 03:48:04;;;;;;;0.30;0.30;;;;;;;10.34;76.28;100921.63;5128087;28;20079;-80
2022/12/20 03:50:36;;;;;;;0.40;0.40;;;;;;;10.30;76.65;100912.06;5143659;28;20109;-80
2022/12/20 03:53:06;;;;;;;0.20;0.20;;;;;;;10.35;76.76;100915.47;5149404;28;20026;-81
2022/12/20 03:55:37;;;;;;;0.30;0.30;;;;;;;10.36;76.91;100906.72;5149182;28;20065;-81
2022/12/20 03:58:07;;;;;;;0.20;0.20;;;;;;;10.36;76.63;100904.09;5134307;28;20038;-81
2022/12/20 04:00:38;;;;;;;0.32;0.32;;;;;;;10.23;77.17;100907.88;5164342;28;20469;-81
2022/12/20 04:03:08;;;;;;;0.20;0.20;;;;;;;10.22;77.21;100904.41;5138032;28;20109;-81
2022/12/20 04:05:39;;;;;;;0.88;0.85;;;;;;;10.20;77.81;100902.72;5162687;28;20392;-81
2022/12/20 04:08:09;;;;;;;0.30;0.30;;;;;;;10.25;77.06;100898.22;5167923;28;20042;-80
2022/12/20 04:13:28;;;;;;;0.40;0.40;;;;;;;10.21;77.26;100904.41;5159908;28;20101;-80
2022/12/20 04:15:59;;;;;;;0.68;0.68;;;;;;;10.23;77.54;100913.13;5146776;28;20149;-81
2022/12/20 04:18:29;;;;;;;0.32;0.32;;;;;;;10.18;77.19;100907.13;5165015;28;20034;-80
2022/12/20 04:21:00;;;;;;;0.30;0.30;;;;;;;10.17;77.51;100900.16;5134092;28;20091;-81
2022/12/20 04:23:31;;;;;;;0.50;0.50;;;;;;;10.15;77.52;100900.19;5170774;28;20512;-80
2022/12/20 04:26:04;;;;;;;0.43;0.43;;;;;;;10.15;77.71;100889.72;5156148;28;20046;-81
2022/12/20 04:28:35;;;;;;;0.35;0.35;;;;;;;10.17;77.58;100897.53;5166148;28;20030;-81
2022/12/20 04:31:05;;;;;;;0.40;0.40;;;;;;;10.12;77.79;100899.41;5147183;28;20042;-81
2022/12/20 04:33:36;;;;;;;0.65;0.65;;;;;;;10.10;77.68;100895.94;5183905;28;20026;-80
2022/12/20 04:36:07;;;;;;;0.20;0.20;;;;;;;10.08;77.61;100882.88;5163208;28;20043;-81
2022/12/20 04:38:37;;;;;;;0.30;0.30;;;;;;;10.07;78.16;100875.91;5132762;28;20035;-81
2022/12/20 04:41:08;;;;;;;0.22;0.22;;;;;;;10.06;77.91;100869.78;5129502;28;20710;-81
2022/12/20 04:43:38;;;;;;;0.40;0.40;;;;;;;10.11;78.18;100871.47;5149387;28;20042;-81
2022/12/20 04:46:09;;;;;;;0.30;0.30;;;;;;;10.08;78.29;100873.25;5150985;28;20029;-80
2022/12/20 04:48:39;;;;;;;0.57;0.57;;;;;;;10.05;78.15;100860.19;5150247;28;20722;-81
2022/12/20 04:51:10;;;;;;;0.40;0.40;;;;;;;10.05;78.31;100861.97;5177087;28;20035;-81
2022/12/20 04:53:46;;;;;;;0.30;0.30;;;;;;;10.15;77.84;100870.47;5175441;28;20031;-80
2022/12/20 04:56:23;;;;;;;0.40;0.40;;;;;;;10.13;78.15;100864.41;5138155;28;20062;-80
2022/12/20 04:58:56;;;;;;;0.57;0.57;;;;;;;10.06;78.37;100854.06;5161177;28;20023;-84
2022/12/20 05:01:26;;;;;;;0.73;0.73;;;;;;;10.04;78.20;100860.25;5158502;28;20038;-81
2022/12/20 05:03:57;;;;;;;0.32;0.32;;;;;;;10.02;78.15;100855.03;5168044;28;20518;-81
2022/12/20 05:06:27;;;;;;;1.05;1.05;;;;;;;10.01;78.74;100850.69;5156271;28;20057;-80
2022/12/20 05:08:58;;;;;;;0.93;0.93;;;;;;;10.05;78.40;100852.34;5169264;28;20022;-80
2022/12/20 05:11:28;;;;;;;0.45;0.45;;;;;;;10.02;78.36;100847.19;5153535;28;20089;-81
2022/12/20 05:13:59;;;;;;;0.30;0.30;;;;;;;10.01;78.21;100845.44;5167030;28;20759;-82
2022/12/20 05:16:29;;;;;;;0.32;0.32;;;;;;;10.00;78.19;100842.88;5166280;28;20463;-80
2022/12/20 05:19:02;;;;;;;0.20;0.20;;;;;;;10.08;78.41;100843.56;5151485;28;20042;-82
2022/12/20 05:27:11;;;;;;;0.70;0.70;;;;;;;9.97;78.64;100822.81;5148491;28;20026;-83
2022/12/20 05:29:41;;;;;;;0.50;0.50;;;;;;;10.02;78.40;100826.22;5137492;28;20036;-80
2022/12/20 05:32:12;;;;;;;2.30;0.63;;;;;;;10.06;78.11;100830.47;5144871;28;20040;-81
2022/12/20 05:34:42;;;;;;;0.30;0.30;;;;;;;10.10;78.33;100833.03;5135089;28;20125;-79
2022/12/20 05:37:13;;;;;;;0.30;0.30;;;;;;;9.97;78.50;100828.06;5148517;28;20570;-80
2022/12/20 05:39:43;;;;;;;0.30;0.30;;;;;;;9.93;78.71;100821.16;5152763;28;20033;-80
2022/12/20 05:42:14;;;;;;;0.85;0.85;;;;;;;9.92;79.15;100824.69;5146819;28;20121;-82
2022/12/20 05:44:44;;;;;;;0.55;0.55;;;;;;;9.97;78.56;100825.44;5155615;28;20472;-82
2022/12/20 05:47:15;;;;;;;4.57;0.95;;;;;;;10.01;78.14;100808.75;5166277;28;20057;-82
2022/12/20 05:49:46;;;;;;;0.30;0.30;;;;;;;9.97;78.15;100814.94;5144054;28;20025;-82
2022/12/20 05:52:16;;;;;;;0.65;0.65;;;;;;;9.94;78.00;100822.91;5155850;28;20239;-82
2022/12/20 05:54:46;;;;;;;0.30;0.30;;;;;;;9.93;78.20;100814.16;5149360;28;20148;-82
2022/12/20 05:57:18;;;;;;;0.28;0.28;;;;;;;9.99;78.15;100814.94;5141483;28;20046;-81
2022/12/20 05:59:48;;;;;;;0.25;0.25;;;;;;;9.95;77.80;100813.25;5146488;28;20022;-82
2022/12/20 06:02:19;;;;;;;0.20;0.20;;;;;;;9.94;78.39;100809.78;5137957;28;20525;-81
2022/12/20 06:04:49;;;;;;;0.20;0.20;;;;;;;9.95;78.13;100816.75;5155848;28;20642;-80
2022/12/20 06:07:20;;;;;;;2.05;1.00;;;;;;;10.01;77.70;100819.25;5165480;28;20729;-81
2022/12/20 06:09:51;;;;;;;0.20;0.20;;;;;;;9.95;78.60;100821.13;5139159;28;20156;-81
2022/12/20 06:12:21;;;;;;;0.30;0.30;;;;;;;9.98;78.12;100821.91;5178501;28;20049;-81
2022/12/20 06:14:52;;;;;;;0.30;0.30;;;;;;;9.99;78.29;100814.94;5189538;28;20057;-81
2022/12/20 06:17:23;;;;;;;0.98;0.95;;;;;;;10.03;77.61;100811.31;5165279;28;20065;-84
2022/12/20 06:19:53;;;;;;;0.30;0.30;;;;;;;10.00;78.19;100816.66;5152185;28;20113;-82
2022/12/20 06:22:24;;;;;;;0.73;0.68;;;;;;;10.02;77.68;100810.47;5148858;28;20034;-81
2022/12/20 06:24:54;;;;;;;0.30;0.30;;;;;;;9.97;78.13;100809.69;5156752;28;20026;-81
2022/12/20 06:27:25;;;;;;;0.30;0.30;;;;;;;10.00;78.11;100808.78;5157121;28;20118;-82
2022/12/20 06:29:55;;;;;;;0.30;0.30;;;;;;;10.04;78.19;100797.31;5136628;28;20114;-82
2022/12/20 06:32:26;;;;;;;0.20;0.20;;;;;;;10.01;77.91;100798.25;5131267;28;20034;-82
2022/12/20 06:34:56;;;;;;;0.63;0.40;;;;;;;10.04;77.92;100803.41;5133573;28;20121;-82
2022/12/20 06:37:27;;;;;;;0.52;0.52;;;;;;;10.05;78.24;100784.16;5137076;28;20069;-81
2022/12/20 06:39:58;;;;;;;0.30;0.30;;;;;;;10.03;77.81;100774.63;5162083;28;20065;-82
2022/12/20 06:42:29;;;;;;;0.45;0.45;;;;;;;10.12;77.74;100784.06;5148506;28;20042;-80
2022/12/20 06:44:59;;;;;;;0.50;0.50;;;;;;;10.11;77.75;100782.31;5136815;28;20125;-81
2022/12/20 06:47:30;;;;;;;0.30;0.30;;;;;;;10.07;77.64;100782.38;5131357;28;20061;-81
2022/12/20 06:50:01;;;;;;;0.20;0.20;;;;;;;10.13;77.18;100775.25;5162259;28;20068;-82
2022/12/20 06:52:31;;;;;;;0.73;0.73;;;;;;;10.17;77.41;100784.78;5147590;28;20026;-80
2022/12/20 06:55:02;;;;;;;1.17;1.10;;;;;;;10.11;77.29;100787.56;5148975;28;20488;-81
2022/12/20 06:57:33;;;;;;;0.28;0.28;;;;;;;9.96;77.61;100768.66;5153970;28;20038;-82
2022/12/20 07:00:04;;;;;;;0.35;0.35;;;;;;;10.02;77.69;100773.78;5149936;28;20027;-82
2022/12/20 07:02:35;;;;;;;0.35;0.35;;;;;;;10.00;77.63;100770.31;5162884;28;20052;-82
2022/12/20 07:05:06;;;;;;;0.22;0.22;;;;;;;10.03;77.69;100769.38;5152522;28;20034;-82
2022/12/20 07:07:36;;;;;;;0.52;0.52;;;;;;;10.02;77.90;100763.28;5154623;28;20045;-82
2022/12/20 07:10:07;;;;;;;0.30;0.30;;;;;;;10.06;77.27;100764.94;5154219;28;20065;-82
2022/12/20 07:12:38;;;;;;;0.40;0.40;;;;;;;9.98;77.40;100759.00;5154028;28;20223;-81
2022/12/20 07:15:09;;;;;;;0.40;0.40;;;;;;;10.15;77.09;100760.34;5157024;28;20041;-82
2022/12/20 07:17:39;;;;;;;0.50;0.50;;;;;;;10.04;77.19;100756.22;5152551;28;20062;-81
2022/12/20 07:20:11;;;;;;;0.40;0.40;;;;;;;10.09;77.09;100753.50;5140754;28;20080;-82
2022/12/20 07:22:41;;;;;;;0.30;0.30;;;;;;;10.07;77.40;100756.16;5179000;28;20042;-82
2022/12/20 07:25:11;;;;;;;0.40;0.40;;;;;;;10.05;77.04;100741.38;5157683;28;20061;-81
2022/12/20 07:27:46;;;;;;;0.30;0.30;;;;;;;10.03;77.60;100738.81;5150919;28;20039;-81
2022/12/20 07:30:19;;;;;;;0.30;0.30;;;;;;;10.08;77.48;100747.41;5170242;28;20084;-81
2022/12/20 07:32:49;;;;;;;0.30;0.30;;;;;;;10.01;77.76;100743.22;5133332;28;20323;-81
2022/12/20 07:35:20;;;;;;;0.30;0.30;;;;;;;10.08;77.34;100750.03;5168112;28;20022;-81
2022/12/20 07:37:50;;;;;;;1.25;0.88;;;;;;;10.09;77.03;100753.50;5164043;28;20077;-81
2022/12/20 07:40:23;;;;;;;0.80;0.43;;;;;;;10.08;77.31;100757.91;5136987;28;20078;-81
2022/12/20 07:42:53;;;;;;;0.82;0.82;;;;;;;10.12;77.34;100748.19;5149219;28;20048;-81
2022/12/20 07:45:23;;;;;;;0.40;0.40;;;;;;;10.06;77.45;100757.06;5153187;28;20026;-82
2022/12/20 07:47:56;;;;;;;15.60;2.67;;;;;;;10.03;77.62;100751.03;5152341;28;20113;-82
2022/12/20 07:50:28;;;;;;;0.30;0.30;;;;;;;10.07;77.62;100755.31;5128884;28;20031;-82
2022/12/20 07:52:59;;;;;;;0.50;0.50;;;;;;;10.06;77.77;100764.06;5150789;28;20365;-82
2022/12/20 07:55:30;;;;;;;0.25;0.25;;;;;;;10.12;77.60;100770.94;5172199;28;20153;-82
2022/12/20 07:58:05;;;;;;;0.20;0.20;;;;;;;10.13;77.10;100764.75;5157605;28;20106;-83
2022/12/20 08:00:36;;;;;;;0.32;0.32;;;;;;;10.09;77.45;100763.97;5140946;28;20061;-83
2022/12/20 08:03:41;;;;;;;0.30;0.30;;;;;;;10.12;76.81;100763.91;5132618;28;20050;-82
2022/12/20 08:06:13;;;;;;;0.30;0.30;;;;;;;10.16;76.64;100754.22;5132422;28;20421;-82
2022/12/20 08:08:53;;;;;;;0.52;0.52;;;;;;;10.12;77.16;100758.69;5153990;28;20026;-82
2022/12/20 08:11:24;;;;;;;0.30;0.30;;;;;;;10.14;76.93;100758.63;5162817;28;20030;-83
2022/12/20 08:13:55;;;;;;;0.30;0.30;;;;;;;10.18;76.66;100752.44;5158385;28;20125;-82
2022/12/20 08:16:26;;;;;;;0.35;0.35;;;;;;;10.22;77.29;100743.56;5167235;28;20054;-82
2022/12/20 08:18:56;;;;;;;0.30;0.30;;;;;;;10.15;76.40;100744.63;5157178;28;20739;-83
2022/12/20 08:21:27;;;;;;;0.45;0.45;;;;;;;10.15;77.37;100731.50;5168901;28;20062;-82
2022/12/20 08:23:58;;;;;;;0.30;0.30;;;;;;;10.13;77.42;100731.56;5155607;28;20027;-83
2022/12/20 08:26:28;;;;;;;0.30;0.30;;;;;;;10.21;77.53;100728.72;5154338;28;20106;-82
2022/12/20 08:28:59;;;;;;;0.30;0.30;;;;;;;10.20;76.63;100730.50;5169532;28;20038;-81
2022/12/20 08:31:30;;;;;;;0.22;0.22;;;;;;;10.14;76.46;100740.28;5136247;28;20286;-81
2022/12/20 08:34:00;;;;;;;0.30;0.30;;;;;;;10.17;76.70;100740.22;5147576;28;20122;-81
2022/12/20 08:36:31;;;;;;;0.32;0.32;;;;;;;10.15;76.78;100736.75;5144824;28;20113;-82
2022/12/20 08:39:03;;;;;;;0.30;0.30;;;;;;;10.21;76.71;100752.31;5145213;28;20022;-82
2022/12/20 08:41:36;;;;;;;0.20;0.20;;;;;;;10.16;76.82;100748.97;5148226;28;20118;-81
2022/12/20 08:44:07;;;;;;;0.30;0.30;;;;;;;10.18;76.87;100747.19;5178627;28;20044;-82
2022/12/20 08:46:37;;;;;;;2.08;0.95;;;;;;;10.17;77.08;100753.31;5149042;28;20042;-81
2022/12/20 08:49:08;;;;;;;0.50;0.50;;;;;;;10.18;77.17;100745.41;5148598;28;20033;-82
2022/12/20 08:51:38;;;;;;;0.30;0.30;;;;;;;10.20;77.08;100745.38;5164174;28;20061;-82
2022/12/20 08:54:08;;;;;;;0.38;0.38;;;;;;;10.26;76.79;100744.34;5163994;28;20030;-81
2022/12/20 08:56:39;;;;;;;0.45;0.45;;;;;;;10.29;77.16;100744.28;5169527;28;20053;-82
2022/12/20 08:59:09;;;;;;;0.75;0.75;;;;;;;10.27;76.58;100749.56;5148961;28;20089;-82
2022/12/20 09:01:40;;;;;;;0.35;0.35;;;;;;;10.27;77.12;100748.69;5128837;28;20732;-81
2022/12/20 09:04:11;;;;;;;1.45;0.60;;;;;;;10.31;76.74;100748.59;5149016;28;20030;-82
2022/12/20 09:06:44;;;;;;;0.30;0.30;;;;;;;10.34;75.99;100753.75;5145158;28;20050;-82
2022/12/20 09:09:15;;;;;;;0.30;0.30;;;;;;;10.33;76.78;100746.78;5166485;28;20640;-82
2022/12/20 09:11:45;;;;;;;0.40;0.40;;;;;;;10.42;76.42;100748.34;5153992;28;20045;-82
2022/12/20 09:14:17;;;;;;;0.70;0.60;;;;;;;10.33;76.69;100752.03;5151636;28;20030;-82
2022/12/20 09:16:48;;;;;;;0.47;0.47;;;;;;;10.44;77.00;100753.56;5168406;28;20725;-82
2022/12/20 09:19:18;;;;;;;0.35;0.35;;;;;;;10.38;76.81;100751.94;5180110;28;20026;-81
2022/12/20 09:21:49;;;;;;;0.65;0.65;;;;;;;10.32;76.71;100752.94;5128992;28;20060;-82
2022/12/20 09:24:19;;;;;;;0.40;0.40;;;;;;;10.31;76.84;100747.75;5131505;28;20031;-82
2022/12/20 09:26:49;;;;;;;0.22;0.22;;;;;;;10.35;76.71;100741.50;5150834;28;20408;-81
2022/12/20 09:29:20;;;;;;;1.10;1.10;;;;;;;10.34;76.84;100745.91;5161095;28;20034;-82
2022/12/20 09:31:50;;;;;;;1.90;0.70;;;;;;;10.31;76.81;100748.59;5133309;28;20707;-82
2022/12/20 09:34:21;;;;;;;0.30;0.30;;;;;;;10.35;76.24;100739.75;5158105;28;20023;-82
2022/12/20 09:36:51;;;;;;;0.60;0.60;;;;;;;10.31;76.82;100737.25;5131465;28;20042;-82
2022/12/20 09:39:22;;;;;;;0.35;0.35;;;;;;;10.41;76.13;100730.91;5141104;28;20035;-81
2022/12/20 09:41:53;;;;;;;0.30;0.30;;;;;;;10.37;76.21;100724.00;5147557;28;20463;-82
2022/12/20 09:44:31;;;;;;;0.30;0.30;;;;;;;10.30;76.36;100731.13;5141614;28;20054;-82
2022/12/20 09:47:09;;;;;;;9.15;1.42;;;;;;;10.36;76.31;100738.84;5158632;28;20107;-82
2022/12/20 09:49:46;;;;;;;0.40;0.40;;;;;;;10.33;76.45;100733.69;5134480;28;20034;-82
2022/12/20 09:52:35;;;;;;;0.20;0.20;;;;;;;10.41;76.69;100727.41;5140635;28;20038;-82
2022/12/20 09:55:09;;;;;;;0.30;0.30;;;;;;;10.38;76.91;100730.97;5145175;28;20050;-82
2022/12/20 09:57:58;;;;;;;;;;;;;;;10.38;77.19;100731.81;5152576;28;20065;-82
2022/12/20 10:00:34;;;;;;;0.20;0.20;;;;;;;10.46;76.12;100733.38;5139398;28;19910;-81
2022/12/20 10:03:04;;;;;;;0.55;0.55;;;;;;;10.41;77.01;100736.16;5125350;28;20026;-82
2022/12/20 10:05:50;;;;;;;0.47;0.47;;;;;;;10.47;76.64;100732.47;5146295;28;20033;-82
2022/12/20 10:08:36;;;;;;;0.22;0.22;;;;;;;10.47;76.48;100737.72;5162723;28;20022;-81
2022/12/20 10:11:17;;;;;;;0.75;0.70;;;;;;;10.53;76.54;100724.47;5132299;28;20026;-82
2022/12/20 10:13:56;;;;;;;0.25;0.25;;;;;;;10.58;76.31;100725.19;5134144;28;20034;-82
2022/12/20 10:16:43;;;;;;;8.93;1.85;;;;;;;10.55;76.33;100725.25;5130023;28;20073;-82
2022/12/20 10:19:46;;;;;;;0.30;0.30;;;;;;;10.52;76.89;100726.22;5132494;28;20026;-82
2022/12/20 10:22:27;;;;;;;0.30;0.30;;;;;;;10.54;76.70;100729.66;5151845;28;20105;-82
2022/12/20 10:25:01;;;;;;;1.83;1.23;;;;;;;10.53;76.69;100725.31;5164210;28;20029;-82
2022/12/20 10:27:36;;;;;;;;;;;;;;;10.52;76.66;100715.72;5170909;28;20050;-82
2022/12/20 10:30:16;;;;;;;9.30;1.88;;;;;;;10.52;76.43;100710.47;5152356;28;19913;-81
2022/12/20 10:32:49;;;;;;;7.78;1.23;;;;;;;10.53;76.92;100700.84;5151102;28;20064;-81
2022/12/20 10:35:25;;;;;;;1.60;0.77;;;;;;;10.57;76.83;100702.47;5161380;28;20070;-81
2022/12/20 10:38:02;;;;;;;0.25;0.25;;;;;;;10.57;75.94;100694.59;5162897;28;20204;-81
2022/12/20 10:40:39;;;;;;;0.98;0.98;;;;;;;10.63;76.24;100702.28;5147676;28;20587;-81
2022/12/20 10:43:21;;;;;;;0.20;0.20;;;;;;;10.70;76.09;100692.50;5128253;28;20038;-81
2022/12/20 10:46:01;;;;;;;0.30;0.30;;;;;;;10.63;75.81;100690.97;5137361;28;20066;-81
2022/12/20 10:48:32;;;;;;;0.20;0.20;;;;;;;10.64;76.37;100685.66;5176065;28;20080;-81
2022/12/20 10:51:09;;;;;;;6.30;2.33;;;;;;;10.67;76.23;100677.72;5164156;28;20092;-81
2022/12/20 10:53:52;;;;;;;0.60;0.60;;;;;;;10.73;75.40;100681.94;5134636;28;20128;-81
2022/12/20 10:56:26;;;;;;;0.40;0.40;;;;;;;10.72;76.29;100667.09;5124671;28;20046;-81
2022/12/20 10:59:16;;;;;;;0.30;0.30;;;;;;;10.74;76.07;100674.91;5143910;28;20125;-81
2022/12/20 11:01:48;;;;;;;0.30;0.30;;;;;;;10.74;75.06;100673.16;5163909;28;20076;-81
2022/12/20 11:04:27;;;;;;;0.30;0.30;;;;;;;10.89;75.30;100676.25;5165752;28;20050;-81
2022/12/20 11:07:00;;;;;;;0.30;0.30;;;;;;;10.96;74.90;100669.91;5137528;28;20038;-81
2022/12/20 11:09:35;;;;;;;0.43;0.43;;;;;;;10.93;75.46;100657.72;5135109;28;20080;-81
2022/12/20 11:12:14;;;;;;;0.50;0.50;;;;;;;10.91;75.87;100659.53;5145646;28;20038;-81
2022/12/20 11:14:46;;;;;;;0.20;0.20;;;;;;;10.91;75.23;100662.16;5146333;28;20677;-81
2022/12/20 11:17:39;;;;;;;0.30;0.30;;;;;;;10.91;75.67;100651.66;5133789;28;20363;-81
2022/12/20 11:20:22;;;;;;;0.30;0.30;;;;;;;10.91;74.88;100648.19;5184397;28;20100;-80
2022/12/20 11:22:55;;;;;;;3.40;2.23;;;;;;;10.96;75.28;100649.75;5131467;28;20070;-80
2022/12/20 11:25:32;;;;;;;0.20;0.20;;;;;;;10.92;75.46;100649.88;5166326;28;20349;-81
2022/12/20 11:28:16;;;;;;;0.75;0.75;;;;;;;11.00;75.05;100646.13;5147311;28;20026;-81
2022/12/20 11:31:04;;;;;;;0.20;0.20;;;;;;;11.00;75.82;100650.50;5165248;28;20050;-81
2022/12/20 11:33:51;;;;;;;6.43;1.15;;;;;;;10.96;75.49;100644.50;5160786;28;20034;-81
2022/12/20 11:36:39;;;;;;;0.30;0.30;;;;;;;11.00;75.56;100642.63;5147941;28;20121;-81
2022/12/20 11:39:55;;;;;;;0.25;0.25;;;;;;;11.01;74.94;100632.09;5140223;28;20088;-80
2022/12/20 11:43:05;;;;;;;0.30;0.30;;;;;;;11.03;74.90;100627.66;5146999;28;20073;-81
2022/12/20 11:45:51;;;;;;;0.50;0.50;;;;;;;11.12;74.80;100623.03;5161596;28;20037;-83
2022/12/20 11:48:32;;;;;;;0.60;0.60;;;;;;;11.06;74.92;100631.09;5148130;28;20029;-82
2022/12/20 11:51:11;;;;;;;0.30;0.30;;;;;;;11.06;74.96;100625.84;5142021;28;20054;-82
2022/12/20 11:53:56;;;;;;;0.90;0.90;;;;;;;11.10;74.74;100620.44;5184240;28;20075;-85
2022/12/20 11:56:36;;;;;;;0.60;0.60;;;;;;;11.17;74.48;100618.50;5165181;28;20035;-82
2022/12/20 11:59:25;;;;;;;0.30;0.30;;;;;;;11.26;74.51;100623.47;5169283;28;20025;-82
2022/12/20 12:02:04;;;;;;;0.25;0.25;;;;;;;11.30;73.73;100619.81;5147371;28;20145;-83
2022/12/20 12:04:58;;;;;;;10.85;0.60;;;;;;;11.29;74.12;100628.59;5135631;28;20030;-83
2022/12/20 12:07:35;;;;;;;0.40;0.40;;;;;;;11.26;74.41;100618.22;5151832;28;20552;-83